sensor_id;sensor_type;location;lat;lon;timestamp;pressure;altitude;pressure_sealevel;temperature;humidity
42385;BME280;28042;43.986;22.860;2022-07-23T00:01:24;101016.44;;;23.40;53.65
42385;BME280;28042;43.986;22.860;2022-07-23T00:03:50;101015.56;;;23.19;53.22
42385;BME280;28042;43.986;22.860;2022-07-23T00:06:16;101013.34;;;23.11;53.21
42385;BME280;28042;43.986;22.860;2022-07-23T00:08:42;101011.91;;;23.03;52.58
42385;BME280;28042;43.986;22.860;2022-07-23T00:11:07;101005.19;;;22.99;52.71
42385;BME280;28042;43.986;22.860;2022-07-23T00:13:33;101009.97;;;23.09;52.88
42385;BME280;28042;43.986;22.860;2022-07-23T00:15:58;101015.00;;;23.12;52.97
42385;BME280;28042;43.986;22.860;2022-07-23T00:18:24;101009.97;;;23.09;52.71
42385;BME280;28042;43.986;22.860;2022-07-23T00:20:49;101007.19;;;23.14;52.64
42385;BME280;28042;43.986;22.860;2022-07-23T00:23:15;101011.63;;;23.10;53.06
42385;BME280;28042;43.986;22.860;2022-07-23T00:25:41;101011.63;;;23.10;52.96
42385;BME280;28042;43.986;22.860;2022-07-23T00:28:06;101008.00;;;23.04;53.03
42385;BME280;28042;43.986;22.860;2022-07-23T00:30:31;101013.84;;;23.03;53.49
42385;BME280;28042;43.986;22.860;2022-07-23T00:33:04;101010.50;;;23.01;53.46
42385;BME280;28042;43.986;22.860;2022-07-23T00:35:31;101003.78;;;22.92;53.38
42385;BME280;28042;43.986;22.860;2022-07-23T00:37:58;101012.72;;;22.94;53.37
42385;BME280;28042;43.986;22.860;2022-07-23T00:40:24;101014.38;;;22.95;53.12
42385;BME280;28042;43.986;22.860;2022-07-23T00:42:50;101008.81;;;22.95;52.91
42385;BME280;28042;43.986;22.860;2022-07-23T00:45:15;101010.75;;;22.99;52.49
42385;BME280;28042;43.986;22.860;2022-07-23T00:47:41;101009.38;;;23.02;52.60
42385;BME280;28042;43.986;22.860;2022-07-23T00:50:07;101007.16;;;22.99;53.06
42385;BME280;28042;43.986;22.860;2022-07-23T00:52:34;101008.22;;;22.93;52.99
42385;BME280;28042;43.986;22.860;2022-07-23T00:54:59;101007.16;;;22.94;52.87
42385;BME280;28042;43.986;22.860;2022-07-23T00:57:25;101005.75;;;22.96;53.23
42385;BME280;28042;43.986;22.860;2022-07-23T00:59:50;101009.94;;;22.99;53.02
42385;BME280;28042;43.986;22.860;2022-07-23T01:02:15;101005.47;;;22.98;53.08
42385;BME280;28042;43.986;22.860;2022-07-23T01:04:41;101008.81;;;22.95;53.30
42385;BME280;28042;43.986;22.860;2022-07-23T01:07:06;101009.34;;;22.92;53.59
42385;BME280;28042;43.986;22.860;2022-07-23T01:09:32;101011.56;;;22.90;53.69
42385;BME280;28042;43.986;22.860;2022-07-23T01:11:57;101019.91;;;22.90;53.42
42385;BME280;28042;43.986;22.860;2022-07-23T01:14:23;101014.84;;;22.81;54.42
42385;BME280;28042;43.986;22.860;2022-07-23T01:16:49;101021.59;;;22.86;53.81
42385;BME280;28042;43.986;22.860;2022-07-23T01:19:15;101023.53;;;22.90;53.53
42385;BME280;28042;43.986;22.860;2022-07-23T01:21:45;101022.69;;;22.90;53.86
42385;BME280;28042;43.986;22.860;2022-07-23T01:24:11;101022.69;;;22.90;53.71
42385;BME280;28042;43.986;22.860;2022-07-23T01:26:37;101018.19;;;22.83;53.73
42385;BME280;28042;43.986;22.860;2022-07-23T01:29:02;101024.25;;;22.70;53.36
42385;BME280;28042;43.986;22.860;2022-07-23T01:31:28;101019.75;;;22.64;54.02
42385;BME280;28042;43.986;22.860;2022-07-23T01:33:54;101023.03;;;22.51;53.11
42385;BME280;28042;43.986;22.860;2022-07-23T01:36:19;101025.50;;;22.47;51.97
42385;BME280;28042;43.986;22.860;2022-07-23T01:38:44;101022.78;;;22.52;52.21
42385;BME280;28042;43.986;22.860;2022-07-23T01:41:10;101029.22;;;22.63;52.43
42385;BME280;28042;43.986;22.860;2022-07-23T01:43:35;101032.03;;;22.73;51.02
42385;BME280;28042;43.986;22.860;2022-07-23T01:46:00;101032.91;;;22.79;50.18
42385;BME280;28042;43.986;22.860;2022-07-23T01:48:26;101028.47;;;22.83;50.13
42385;BME280;28042;43.986;22.860;2022-07-23T01:50:51;101027.72;;;22.88;49.95
42385;BME280;28042;43.986;22.860;2022-07-23T01:53:16;101038.75;;;22.82;50.54
42385;BME280;28042;43.986;22.860;2022-07-23T01:55:42;101040.16;;;22.80;50.52
42385;BME280;28042;43.986;22.860;2022-07-23T01:58:07;101029.59;;;22.77;50.86
42385;BME280;28042;43.986;22.860;2022-07-23T02:00:33;101035.97;;;22.77;50.71
42385;BME280;28042;43.986;22.860;2022-07-23T02:02:58;101042.63;;;22.71;50.88
42385;BME280;28042;43.986;22.860;2022-07-23T02:05:23;101038.13;;;22.65;51.16
42385;BME280;28042;43.986;22.860;2022-07-23T02:07:49;101035.34;;;22.60;51.20
42385;BME280;28042;43.986;22.860;2022-07-23T02:10:14;101040.06;;;22.60;50.79
42385;BME280;28042;43.986;22.860;2022-07-23T02:12:40;101038.13;;;22.60;50.73
42385;BME280;28042;43.986;22.860;2022-07-23T02:15:05;101045.28;;;22.51;51.31
42385;BME280;28042;43.986;22.860;2022-07-23T02:17:31;101049.44;;;22.48;51.21
42385;BME280;28042;43.986;22.860;2022-07-23T02:19:56;101049.69;;;22.47;50.91
42385;BME280;28042;43.986;22.860;2022-07-23T02:22:21;101053.81;;;22.39;51.59
42385;BME280;28042;43.986;22.860;2022-07-23T02:24:47;101049.56;;;22.26;52.01
42385;BME280;28042;43.986;22.860;2022-07-23T02:27:12;101050.06;;;22.18;52.12
42385;BME280;28042;43.986;22.860;2022-07-23T02:29:37;101057.69;;;22.06;53.63
42385;BME280;28042;43.986;22.860;2022-07-23T02:32:02;101069.28;;;21.93;53.48
42385;BME280;28042;43.986;22.860;2022-07-23T02:34:28;101063.63;;;21.83;53.77
42385;BME280;28042;43.986;22.860;2022-07-23T02:36:53;101073.28;;;21.75;53.55
42385;BME280;28042;43.986;22.860;2022-07-23T02:39:18;101076.31;;;21.73;53.42
42385;BME280;28042;43.986;22.860;2022-07-23T02:41:44;101071.34;;;21.76;53.65
42385;BME280;28042;43.986;22.860;2022-07-23T02:44:09;101069.81;;;21.90;52.86
42385;BME280;28042;43.986;22.860;2022-07-23T02:46:34;101078.50;;;21.98;52.04
42385;BME280;28042;43.986;22.860;2022-07-23T02:49:00;101081.03;;;22.05;51.83
42385;BME280;28042;43.986;22.860;2022-07-23T02:51:25;101088.53;;;22.05;52.62
42385;BME280;28042;43.986;22.860;2022-07-23T02:53:50;101077.66;;;21.98;52.46
42385;BME280;28042;43.986;22.860;2022-07-23T02:56:15;101069.34;;;22.03;52.23
42385;BME280;28042;43.986;22.860;2022-07-23T02:58:41;101080.03;;;22.11;52.36
42385;BME280;28042;43.986;22.860;2022-07-23T03:01:06;101082.03;;;22.16;51.54
42385;BME280;28042;43.986;22.860;2022-07-23T03:03:32;101087.91;;;22.24;51.29
42385;BME280;28042;43.986;22.860;2022-07-23T03:05:58;101080.97;;;22.27;51.31
42385;BME280;28042;43.986;22.860;2022-07-23T03:08:23;101087.72;;;22.36;51.65
42385;BME280;28042;43.986;22.860;2022-07-23T03:10:49;101089.09;;;22.34;51.27
42385;BME280;28042;43.986;22.860;2022-07-23T03:13:14;101092.09;;;22.27;52.03
42385;BME280;28042;43.986;22.860;2022-07-23T03:15:39;101089.06;;;22.28;52.18
42385;BME280;28042;43.986;22.860;2022-07-23T03:18:05;101094.16;;;22.42;51.81
42385;BME280;28042;43.986;22.860;2022-07-23T03:20:30;101100.25;;;22.39;52.59
42385;BME280;28042;43.986;22.860;2022-07-23T03:22:55;101091.34;;;22.37;52.66
42385;BME280;28042;43.986;22.860;2022-07-23T03:25:21;101094.72;;;22.44;52.69
42385;BME280;28042;43.986;22.860;2022-07-23T03:27:46;101101.97;;;22.45;53.10
42385;BME280;28042;43.986;22.860;2022-07-23T03:30:11;101107.53;;;22.50;52.98
42385;BME280;28042;43.986;22.860;2022-07-23T03:32:37;101103.09;;;22.49;53.42
42385;BME280;28042;43.986;22.860;2022-07-23T03:35:02;101103.06;;;22.44;53.67
42385;BME280;28042;43.986;22.860;2022-07-23T03:37:27;101106.34;;;22.36;54.46
42385;BME280;28042;43.986;22.860;2022-07-23T03:39:53;101106.56;;;22.29;54.86
42385;BME280;28042;43.986;22.860;2022-07-23T03:42:18;101114.63;;;22.31;55.16
42385;BME280;28042;43.986;22.860;2022-07-23T03:44:44;101113.94;;;22.13;55.68
42385;BME280;28042;43.986;22.860;2022-07-23T03:47:09;101100.16;;;22.28;55.41
42385;BME280;28042;43.986;22.860;2022-07-23T03:49:34;101114.38;;;22.69;54.56
42385;BME280;28042;43.986;22.860;2022-07-23T03:52:00;101106.81;;;23.07;53.32
42385;BME280;28042;43.986;22.860;2022-07-23T03:54:25;101115.31;;;23.53;52.23
42385;BME280;28042;43.986;22.860;2022-07-23T03:56:50;101120.38;;;23.56;52.12
42385;BME280;28042;43.986;22.860;2022-07-23T03:59:16;101120.63;;;23.49;51.99
42385;BME280;28042;43.986;22.860;2022-07-23T04:01:41;101115.97;;;23.65;51.24
42385;BME280;28042;43.986;22.860;2022-07-23T04:04:06;101117.13;;;23.94;50.51
42385;BME280;28042;43.986;22.860;2022-07-23T04:06:33;101115.75;;;24.22;49.70
42385;BME280;28042;43.986;22.860;2022-07-23T04:08:58;101121.03;;;24.70;48.75
42385;BME280;28042;43.986;22.860;2022-07-23T04:11:24;101125.94;;;25.19;47.40
42385;BME280;28042;43.986;22.860;2022-07-23T04:13:49;101116.38;;;25.40;46.34
42385;BME280;28042;43.986;22.860;2022-07-23T04:16:15;101115.78;;;25.43;46.04
42385;BME280;28042;43.986;22.860;2022-07-23T04:18:40;101115.69;;;25.63;46.38
42385;BME280;28042;43.986;22.860;2022-07-23T04:21:05;101118.56;;;25.48;47.69
42385;BME280;28042;43.986;22.860;2022-07-23T04:23:31;101125.75;;;25.59;47.99
42385;BME280;28042;43.986;22.860;2022-07-23T04:25:56;101124.53;;;26.20;46.65
42385;BME280;28042;43.986;22.860;2022-07-23T04:28:21;101124.31;;;26.80;45.24
42385;BME280;28042;43.986;22.860;2022-07-23T04:30:46;101126.88;;;27.00;44.42
42385;BME280;28042;43.986;22.860;2022-07-23T04:33:12;101122.75;;;27.21;44.01
42385;BME280;28042;43.986;22.860;2022-07-23T04:35:37;101124.88;;;27.29;43.21
42385;BME280;28042;43.986;22.860;2022-07-23T04:38:03;101127.59;;;27.35;43.33
42385;BME280;28042;43.986;22.860;2022-07-23T04:40:28;101122.66;;;27.69;42.34
42385;BME280;28042;43.986;22.860;2022-07-23T04:42:53;101130.03;;;27.84;41.91
42385;BME280;28042;43.986;22.860;2022-07-23T04:45:19;101122.50;;;28.17;40.85
42385;BME280;28042;43.986;22.860;2022-07-23T04:47:44;101137.81;;;28.43;40.25
42385;BME280;28042;43.986;22.860;2022-07-23T04:50:09;101138.56;;;29.23;38.80
42385;BME280;28042;43.986;22.860;2022-07-23T04:52:35;101129.53;;;29.90;37.57
42385;BME280;28042;43.986;22.860;2022-07-23T04:55:00;101122.31;;;30.64;36.26
42385;BME280;28042;43.986;22.860;2022-07-23T04:57:26;101128.63;;;31.23;35.20
42385;BME280;28042;43.986;22.860;2022-07-23T04:59:51;101123.22;;;31.62;34.17
42385;BME280;28042;43.986;22.860;2022-07-23T05:02:16;101129.06;;;31.65;34.07
42385;BME280;28042;43.986;22.860;2022-07-23T05:04:41;101125.78;;;31.23;34.76
42385;BME280;28042;43.986;22.860;2022-07-23T05:07:07;101133.03;;;31.73;34.19
42385;BME280;28042;43.986;22.860;2022-07-23T05:09:32;101121.47;;;32.09;33.21
42385;BME280;28042;43.986;22.860;2022-07-23T05:11:57;101123.09;;;32.27;32.80
42385;BME280;28042;43.986;22.860;2022-07-23T05:14:23;101130.06;;;32.56;32.31
42385;BME280;28042;43.986;22.860;2022-07-23T05:16:48;101137.81;;;32.94;31.68
42385;BME280;28042;43.986;22.860;2022-07-23T05:19:13;101129.75;;;31.97;33.00
42385;BME280;28042;43.986;22.860;2022-07-23T05:21:39;101126.78;;;32.37;32.35
42385;BME280;28042;43.986;22.860;2022-07-23T05:24:04;101131.38;;;32.67;32.28
42385;BME280;28042;43.986;22.860;2022-07-23T05:26:30;101131.75;;;32.40;32.90
42385;BME280;28042;43.986;22.860;2022-07-23T05:28:55;101129.59;;;33.01;31.34
42385;BME280;28042;43.986;22.860;2022-07-23T05:31:20;101138.31;;;32.78;31.23
42385;BME280;28042;43.986;22.860;2022-07-23T05:33:45;101133.63;;;33.38;29.79
42385;BME280;28042;43.986;22.860;2022-07-23T05:36:11;101136.97;;;33.61;29.36
42385;BME280;28042;43.986;22.860;2022-07-23T05:38:36;101134.91;;;33.70;29.09
42385;BME280;28042;43.986;22.860;2022-07-23T05:41:02;101141.84;;;33.81;28.79
42385;BME280;28042;43.986;22.860;2022-07-23T05:43:27;101135.75;;;34.33;28.31
42385;BME280;28042;43.986;22.860;2022-07-23T05:45:53;101128.22;;;33.54;29.33
42385;BME280;28042;43.986;22.860;2022-07-23T05:48:18;101141.78;;;34.11;28.31
42385;BME280;28042;43.986;22.860;2022-07-23T05:50:44;101140.00;;;34.60;28.22
42385;BME280;28042;43.986;22.860;2022-07-23T05:53:09;101133.25;;;35.22;27.26
42385;BME280;28042;43.986;22.860;2022-07-23T05:55:35;101131.22;;;35.35;26.89
42385;BME280;28042;43.986;22.860;2022-07-23T05:58:00;101137.06;;;35.51;27.14
42385;BME280;28042;43.986;22.860;2022-07-23T06:00:26;101132.66;;;35.65;26.46
42385;BME280;28042;43.986;22.860;2022-07-23T06:02:52;101140.91;;;35.83;26.67
42385;BME280;28042;43.986;22.860;2022-07-23T06:05:17;101141.63;;;35.80;26.49
42385;BME280;28042;43.986;22.860;2022-07-23T06:07:43;101146.56;;;34.85;27.83
42385;BME280;28042;43.986;22.860;2022-07-23T06:10:08;101148.25;;;35.35;27.34
42385;BME280;28042;43.986;22.860;2022-07-23T06:12:34;101142.16;;;35.45;27.29
42385;BME280;28042;43.986;22.860;2022-07-23T06:14:59;101144.38;;;35.64;26.68
42385;BME280;28042;43.986;22.860;2022-07-23T06:17:25;101145.66;;;35.05;27.25
42385;BME280;28042;43.986;22.860;2022-07-23T06:19:51;101150.75;;;35.61;29.13
42385;BME280;28042;43.986;22.860;2022-07-23T06:22:17;101146.47;;;35.79;29.44
42385;BME280;28042;43.986;22.860;2022-07-23T06:24:42;101149.13;;;35.48;30.15
42385;BME280;28042;43.986;22.860;2022-07-23T06:27:07;101149.25;;;35.39;30.65
42385;BME280;28042;43.986;22.860;2022-07-23T06:29:32;101147.56;;;35.13;30.76
42385;BME280;28042;43.986;22.860;2022-07-23T06:31:58;101155.13;;;35.71;27.89
42385;BME280;28042;43.986;22.860;2022-07-23T06:34:23;101150.06;;;35.64;25.21
42385;BME280;28042;43.986;22.860;2022-07-23T06:36:49;101153.13;;;35.10;25.90
42385;BME280;28042;43.986;22.860;2022-07-23T06:39:14;101147.75;;;34.84;26.42
42385;BME280;28042;43.986;22.860;2022-07-23T06:41:39;101148.28;;;35.10;30.78
42385;BME280;28042;43.986;22.860;2022-07-23T06:44:05;101153.09;;;34.98;31.22
42385;BME280;28042;43.986;22.860;2022-07-23T06:46:30;101147.25;;;34.49;32.02
42385;BME280;28042;43.986;22.860;2022-07-23T06:48:55;101158.22;;;33.96;32.71
42385;BME280;28042;43.986;22.860;2022-07-23T06:51:21;101152.44;;;33.25;34.44
42385;BME280;28042;43.986;22.860;2022-07-23T06:53:46;101145.84;;;32.57;35.84
42385;BME280;28042;43.986;22.860;2022-07-23T06:56:11;101149.84;;;32.13;36.58
42385;BME280;28042;43.986;22.860;2022-07-23T06:58:37;101144.88;;;32.01;37.11
42385;BME280;28042;43.986;22.860;2022-07-23T07:01:02;101140.88;;;32.02;37.55
42385;BME280;28042;43.986;22.860;2022-07-23T07:03:27;101142.72;;;32.15;37.52
42385;BME280;28042;43.986;22.860;2022-07-23T07:05:53;101143.38;;;32.12;36.94
42385;BME280;28042;43.986;22.860;2022-07-23T07:08:18;101138.06;;;32.19;37.56
42385;BME280;28042;43.986;22.860;2022-07-23T07:10:44;101144.53;;;32.20;36.80
42385;BME280;28042;43.986;22.860;2022-07-23T07:13:09;101137.94;;;32.33;36.07
42385;BME280;28042;43.986;22.860;2022-07-23T07:15:35;101139.22;;;32.10;37.20
42385;BME280;28042;43.986;22.860;2022-07-23T07:18:00;101139.56;;;32.17;37.15
42385;BME280;28042;43.986;22.860;2022-07-23T07:20:25;101144.03;;;31.92;37.01
42385;BME280;28042;43.986;22.860;2022-07-23T07:22:51;101141.28;;;31.52;37.01
42385;BME280;28042;43.986;22.860;2022-07-23T07:25:16;101146.94;;;31.61;37.58
42385;BME280;28042;43.986;22.860;2022-07-23T07:27:41;101143.38;;;31.95;36.88
42385;BME280;28042;43.986;22.860;2022-07-23T07:30:09;101133.59;;;32.10;36.54
42385;BME280;28042;43.986;22.860;2022-07-23T07:32:34;101145.16;;;31.73;34.98
42385;BME280;28042;43.986;22.860;2022-07-23T07:35:02;101143.22;;;31.83;34.17
42385;BME280;28042;43.986;22.860;2022-07-23T07:37:27;101121.94;;;31.76;34.52
42385;BME280;28042;43.986;22.860;2022-07-23T07:39:53;101131.09;;;32.17;34.93
42385;BME280;28042;43.986;22.860;2022-07-23T07:42:18;101137.72;;;32.12;32.74
42385;BME280;28042;43.986;22.860;2022-07-23T07:44:43;101136.56;;;32.13;31.85
42385;BME280;28042;43.986;22.860;2022-07-23T07:47:09;101135.72;;;32.56;31.64
42385;BME280;28042;43.986;22.860;2022-07-23T07:49:34;101126.25;;;32.60;30.08
42385;BME280;28042;43.986;22.860;2022-07-23T07:51:59;101129.94;;;32.44;31.21
42385;BME280;28042;43.986;22.860;2022-07-23T07:54:25;101125.09;;;32.53;30.94
42385;BME280;28042;43.986;22.860;2022-07-23T07:56:50;101132.41;;;32.54;33.61
42385;BME280;28042;43.986;22.860;2022-07-23T07:59:15;101124.81;;;32.93;31.68
42385;BME280;28042;43.986;22.860;2022-07-23T08:01:41;101123.28;;;33.04;28.09
42385;BME280;28042;43.986;22.860;2022-07-23T08:04:06;101119.78;;;33.07;28.54
42385;BME280;28042;43.986;22.860;2022-07-23T08:06:31;101134.91;;;33.11;27.72
42385;BME280;28042;43.986;22.860;2022-07-23T08:08:57;101126.22;;;33.16;27.20
42385;BME280;28042;43.986;22.860;2022-07-23T08:11:22;101125.50;;;33.36;27.51
42385;BME280;28042;43.986;22.860;2022-07-23T08:13:47;101125.28;;;33.41;26.94
42385;BME280;28042;43.986;22.860;2022-07-23T08:16:13;101124.47;;;33.32;27.87
42385;BME280;28042;43.986;22.860;2022-07-23T08:18:38;101124.56;;;33.15;27.59
42385;BME280;28042;43.986;22.860;2022-07-23T08:21:04;101130.50;;;33.22;28.09
42385;BME280;28042;43.986;22.860;2022-07-23T08:23:30;101131.00;;;33.24;27.65
42385;BME280;28042;43.986;22.860;2022-07-23T08:25:56;101114.19;;;33.36;27.82
42385;BME280;28042;43.986;22.860;2022-07-23T08:28:21;101123.22;;;33.51;27.21
42385;BME280;28042;43.986;22.860;2022-07-23T08:30:47;101124.47;;;33.62;27.35
42385;BME280;28042;43.986;22.860;2022-07-23T08:33:14;101117.84;;;33.79;26.99
42385;BME280;28042;43.986;22.860;2022-07-23T08:35:40;101119.97;;;33.90;26.43
42385;BME280;28042;43.986;22.860;2022-07-23T08:38:07;101110.91;;;34.18;26.40
42385;BME280;28042;43.986;22.860;2022-07-23T08:40:34;101127.34;;;34.04;26.15
42385;BME280;28042;43.986;22.860;2022-07-23T08:43:00;101110.28;;;34.12;25.77
42385;BME280;28042;43.986;22.860;2022-07-23T08:45:28;101120.28;;;34.10;26.25
42385;BME280;28042;43.986;22.860;2022-07-23T08:47:54;101111.44;;;34.32;25.83
42385;BME280;28042;43.986;22.860;2022-07-23T08:50:20;101108.22;;;34.54;25.75
42385;BME280;28042;43.986;22.860;2022-07-23T08:52:46;101109.66;;;34.61;25.51
42385;BME280;28042;43.986;22.860;2022-07-23T08:55:13;101107.53;;;34.70;24.93
42385;BME280;28042;43.986;22.860;2022-07-23T08:57:38;101101.63;;;34.75;24.83
42385;BME280;28042;43.986;22.860;2022-07-23T09:00:04;101102.78;;;34.62;25.06
42385;BME280;28042;43.986;22.860;2022-07-23T09:02:30;101099.75;;;34.67;24.73
42385;BME280;28042;43.986;22.860;2022-07-23T09:04:55;101098.31;;;34.73;25.01
42385;BME280;28042;43.986;22.860;2022-07-23T09:07:20;101108.78;;;34.93;25.28
42385;BME280;28042;43.986;22.860;2022-07-23T09:09:46;101098.13;;;34.90;25.03
42385;BME280;28042;43.986;22.860;2022-07-23T09:12:11;101101.88;;;34.82;25.06
42385;BME280;28042;43.986;22.860;2022-07-23T09:17:09;101095.31;;;35.02;24.10
42385;BME280;28042;43.986;22.860;2022-07-23T09:19:34;101094.59;;;35.18;23.24
42385;BME280;28042;43.986;22.860;2022-07-23T09:22:15;101099.22;;;35.22;23.57
42385;BME280;28042;43.986;22.860;2022-07-23T09:25:01;101095.44;;;35.43;23.69
42385;BME280;28042;43.986;22.860;2022-07-23T09:27:26;101080.88;;;35.56;23.69
42385;BME280;28042;43.986;22.860;2022-07-23T09:30:09;101083.06;;;35.75;23.87
42385;BME280;28042;43.986;22.860;2022-07-23T09:32:35;101083.28;;;35.82;23.71
42385;BME280;28042;43.986;22.860;2022-07-23T09:35:00;101078.91;;;35.85;23.74
42385;BME280;28042;43.986;22.860;2022-07-23T09:37:25;101075.09;;;35.93;23.79
42385;BME280;28042;43.986;22.860;2022-07-23T09:39:51;101063.19;;;36.15;23.31
42385;BME280;28042;43.986;22.860;2022-07-23T09:44:48;101064.53;;;36.06;23.69
42385;BME280;28042;43.986;22.860;2022-07-23T09:47:13;101066.47;;;36.17;23.94
42385;BME280;28042;43.986;22.860;2022-07-23T09:49:39;101067.56;;;36.41;23.93
42385;BME280;28042;43.986;22.860;2022-07-23T09:52:04;101069.78;;;36.79;22.86
42385;BME280;28042;43.986;22.860;2022-07-23T09:54:34;101065.88;;;36.84;22.87
42385;BME280;28042;43.986;22.860;2022-07-23T09:57:01;101069.59;;;36.56;21.96
42385;BME280;28042;43.986;22.860;2022-07-23T09:59:28;101058.88;;;36.65;22.30
42385;BME280;28042;43.986;22.860;2022-07-23T10:01:56;101056.50;;;36.51;22.29
42385;BME280;28042;43.986;22.860;2022-07-23T10:04:22;101053.63;;;36.83;21.98
42385;BME280;28042;43.986;22.860;2022-07-23T10:06:49;101050.09;;;37.02;21.31
42385;BME280;28042;43.986;22.860;2022-07-23T10:09:16;101051.00;;;37.06;21.86
42385;BME280;28042;43.986;22.860;2022-07-23T10:11:47;101050.78;;;37.15;21.68
42385;BME280;28042;43.986;22.860;2022-07-23T10:14:13;101048.56;;;37.40;21.08
42385;BME280;28042;43.986;22.860;2022-07-23T10:16:38;101040.47;;;37.61;20.15
42385;BME280;28042;43.986;22.860;2022-07-23T10:19:04;101049.13;;;37.65;21.02
42385;BME280;28042;43.986;22.860;2022-07-23T10:21:45;101038.97;;;37.48;21.57
42385;BME280;28042;43.986;22.860;2022-07-23T10:27:04;101029.84;;;37.39;21.61
42385;BME280;28042;43.986;22.860;2022-07-23T10:37:37;101017.13;;;37.71;21.60
42385;BME280;28042;43.986;22.860;2022-07-23T10:40:10;101025.34;;;37.96;20.71
42385;BME280;28042;43.986;22.860;2022-07-23T10:42:36;101009.19;;;38.00;20.60
42385;BME280;28042;43.986;22.860;2022-07-23T10:45:02;101009.31;;;38.26;20.54
42385;BME280;28042;43.986;22.860;2022-07-23T10:47:46;101011.72;;;38.47;20.26
42385;BME280;28042;43.986;22.860;2022-07-23T10:50:25;101015.94;;;38.57;20.85
42385;BME280;28042;43.986;22.860;2022-07-23T10:53:11;101003.50;;;38.91;20.56
42385;BME280;28042;43.986;22.860;2022-07-23T10:58:04;100989.41;;;38.53;20.20
42385;BME280;28042;43.986;22.860;2022-07-23T11:00:30;100991.75;;;38.24;19.09
42385;BME280;28042;43.986;22.860;2022-07-23T11:02:57;100982.31;;;38.43;19.13
42385;BME280;28042;43.986;22.860;2022-07-23T11:05:39;100980.91;;;38.56;19.58
42385;BME280;28042;43.986;22.860;2022-07-23T11:10:38;100968.81;;;39.12;19.27
42385;BME280;28042;43.986;22.860;2022-07-23T11:26:43;100949.09;;;39.64;19.49
42385;BME280;28042;43.986;22.860;2022-07-23T11:36:57;100941.63;;;39.89;18.98
42385;BME280;28042;43.986;22.860;2022-07-23T11:39:22;100934.19;;;40.18;18.36
42385;BME280;28042;43.986;22.860;2022-07-23T11:41:50;100933.50;;;40.32;19.01
42385;BME280;28042;43.986;22.860;2022-07-23T11:44:29;100927.00;;;40.38;18.55
42385;BME280;28042;43.986;22.860;2022-07-23T11:46:58;100922.25;;;40.09;18.18
42385;BME280;28042;43.986;22.860;2022-07-23T11:49:24;100924.97;;;39.98;18.71
42385;BME280;28042;43.986;22.860;2022-07-23T11:52:10;100925.19;;;40.20;18.29
42385;BME280;28042;43.986;22.860;2022-07-23T11:54:36;100922.91;;;40.39;18.06
42385;BME280;28042;43.986;22.860;2022-07-23T11:57:02;100923.06;;;40.54;18.36
42385;BME280;28042;43.986;22.860;2022-07-23T11:59:30;100921.59;;;40.78;17.86
42385;BME280;28042;43.986;22.860;2022-07-23T12:01:57;100922.06;;;40.32;17.49
42385;BME280;28042;43.986;22.860;2022-07-23T12:04:23;100913.38;;;39.80;18.33
42385;BME280;28042;43.986;22.860;2022-07-23T12:06:48;100908.22;;;39.60;18.84
42385;BME280;28042;43.986;22.860;2022-07-23T12:09:13;100911.84;;;39.90;18.15
42385;BME280;28042;43.986;22.860;2022-07-23T12:11:38;100906.41;;;40.19;17.57
42385;BME280;28042;43.986;22.860;2022-07-23T12:14:04;100904.91;;;40.32;17.57
42385;BME280;28042;43.986;22.860;2022-07-23T12:16:31;100910.31;;;40.44;17.63
42385;BME280;28042;43.986;22.860;2022-07-23T12:18:56;100902.16;;;40.02;17.40
42385;BME280;28042;43.986;22.860;2022-07-23T12:21:22;100900.00;;;39.88;18.13
42385;BME280;28042;43.986;22.860;2022-07-23T12:23:48;100899.88;;;40.18;17.09
42385;BME280;28042;43.986;22.860;2022-07-23T12:26:13;100896.75;;;40.34;17.17
42385;BME280;28042;43.986;22.860;2022-07-23T12:28:38;100888.84;;;40.20;17.37
42385;BME280;28042;43.986;22.860;2022-07-23T12:31:04;100886.44;;;39.81;17.97
42385;BME280;28042;43.986;22.860;2022-07-23T12:33:33;100886.47;;;40.29;17.98
42385;BME280;28042;43.986;22.860;2022-07-23T12:36:03;100889.22;;;40.63;16.49
42385;BME280;28042;43.986;22.860;2022-07-23T12:38:36;100883.91;;;40.65;16.87
42385;BME280;28042;43.986;22.860;2022-07-23T12:41:02;100883.06;;;40.64;16.72
42385;BME280;28042;43.986;22.860;2022-07-23T12:43:28;100876.69;;;40.85;17.09
42385;BME280;28042;43.986;22.860;2022-07-23T12:46:02;100874.72;;;41.00;16.02
42385;BME280;28042;43.986;22.860;2022-07-23T12:48:28;100878.44;;;41.04;16.42
42385;BME280;28042;43.986;22.860;2022-07-23T12:50:58;100868.97;;;40.93;16.07
42385;BME280;28042;43.986;22.860;2022-07-23T12:53:25;100857.16;;;41.09;16.25
42385;BME280;28042;43.986;22.860;2022-07-23T12:55:53;100851.91;;;41.21;15.73
42385;BME280;28042;43.986;22.860;2022-07-23T12:58:22;100848.22;;;41.24;16.79
42385;BME280;28042;43.986;22.860;2022-07-23T13:00:49;100854.78;;;41.21;15.44
42385;BME280;28042;43.986;22.860;2022-07-23T13:03:24;100842.88;;;41.12;16.05
42385;BME280;28042;43.986;22.860;2022-07-23T13:05:50;100852.78;;;41.33;15.71
42385;BME280;28042;43.986;22.860;2022-07-23T13:08:15;100841.69;;;41.24;15.58
42385;BME280;28042;43.986;22.860;2022-07-23T13:10:41;100834.44;;;41.44;16.02
42385;BME280;28042;43.986;22.860;2022-07-23T13:13:12;100831.94;;;41.43;15.93
42385;BME280;28042;43.986;22.860;2022-07-23T13:15:37;100829.91;;;41.40;15.89
42385;BME280;28042;43.986;22.860;2022-07-23T13:18:03;100825.31;;;41.10;15.82